Time;durP1;ratioP1;P1;durP2;ratioP2;P2;SDS_P1;SDS_P2;PMS_P1;PMS_P2;Temp;Humidity;BMP_temperature;BMP_pressure;BME280_temperature;BME280_humidity;BME280_pressure;Samples;Min_cycle;Max_cycle;Signal;HPM_P1;HPM_P2
2022/09/23 00:01:47;;;;;;;7.20;2.67;;;5.60;99.90;;;;;;5006798;28;20206;-65
2022/09/23 00:04:13;;;;;;;4.20;2.23;;;5.60;99.90;;;;;;4990140;28;20282;-66
2022/09/23 00:06:39;;;;;;;5.70;2.80;;;5.60;99.90;;;;;;5005786;28;20192;-66
2022/09/23 00:09:04;;;;;;;3.10;1.90;;;5.60;99.90;;;;;;5010061;28;20207;-65
2022/09/23 00:11:31;;;;;;;6.10;2.20;;;5.50;99.90;;;;;;5005658;28;20423;-65
2022/09/23 00:13:58;;;;;;;4.50;2.20;;;5.50;99.90;;;;;;5009174;28;20259;-66
2022/09/23 00:16:29;;;;;;;6.07;2.77;;;5.50;99.90;;;;;;5004242;28;20454;-66
2022/09/23 00:18:55;;;;;;;6.40;2.60;;;5.50;99.90;;;;;;4979769;28;20429;-66
2022/09/23 00:21:21;;;;;;;7.23;2.77;;;5.50;99.90;;;;;;5003685;28;20962;-65
2022/09/23 00:23:47;;;;;;;4.20;1.97;;;5.50;99.90;;;;;;5008938;28;20265;-65
2022/09/23 00:26:15;;;;;;;3.13;1.60;;;5.40;99.90;;;;;;5003025;28;20430;-65
2022/09/23 00:28:42;;;;;;;3.03;1.67;;;5.40;99.90;;;;;;5007818;28;20480;-66
2022/09/23 00:31:16;;;;;;;2.40;1.27;;;5.40;99.90;;;;;;5002130;28;20427;-66
2022/09/23 00:33:41;;;;;;;3.00;1.57;;;5.40;99.90;;;;;;4989763;28;20429;-66
2022/09/23 00:36:10;;;;;;;3.33;1.57;;;5.40;99.90;;;;;;5001612;28;20461;-66
2022/09/23 00:38:36;;;;;;;4.37;1.50;;;5.40;99.90;;;;;;5006605;28;20231;-66
2022/09/23 00:41:02;;;;;;;4.43;1.83;;;5.40;99.90;;;;;;5008129;28;20433;-65
2022/09/23 00:43:38;;;;;;;2.30;1.20;;;5.40;99.90;;;;;;5012222;28;20417;-65
2022/09/23 00:46:07;;;;;;;2.23;1.10;;;5.40;99.90;;;;;;5010732;28;20422;-65
2022/09/23 00:48:35;;;;;;;3.00;1.60;;;5.40;99.90;;;;;;5011849;28;20483;-65
2022/09/23 00:51:02;;;;;;;2.20;1.13;;;5.40;99.90;;;;;;5012442;28;20425;-66
2022/09/23 00:53:28;;;;;;;2.33;0.80;;;5.40;99.90;;;;;;5010344;28;20424;-66
2022/09/23 00:55:56;;;;;;;1.90;1.13;;;5.40;99.90;;;;;;4994494;28;20429;-66
2022/09/23 00:58:26;;;;;;;4.73;1.70;;;5.40;99.90;;;;;;5001277;28;20419;-66
2022/09/23 01:00:53;;;;;;;2.53;1.23;;;5.30;99.90;;;;;;5011254;28;20493;-65
2022/09/23 01:03:18;;;;;;;3.13;1.70;;;5.30;99.90;;;;;;4992487;28;20423;-66
2022/09/23 01:05:45;;;;;;;2.07;1.10;;;5.30;99.90;;;;;;5011478;28;20425;-66
2022/09/23 01:08:13;;;;;;;3.43;1.60;;;5.30;99.90;;;;;;5009626;28;20199;-65
2022/09/23 01:10:50;;;;;;;2.07;1.10;;;5.40;99.90;;;;;;5011063;28;20422;-66
2022/09/23 01:13:31;;;;;;;2.33;1.27;;;5.40;99.90;;;;;;5008869;28;20422;-66
2022/09/23 01:16:20;;;;;;;1.67;1.00;;;5.30;99.90;;;;;;5005675;28;20427;-65
2022/09/23 01:18:55;;;;;;;2.77;1.70;;;5.30;99.90;;;;;;5011168;28;20414;-65
2022/09/23 01:21:39;;;;;;;5.43;1.13;;;5.30;99.90;;;;;;4991416;28;20434;-65
2022/09/23 01:24:28;;;;;;;2.63;1.50;;;5.20;99.90;;;;;;5010319;28;20422;-65
2022/09/23 01:26:56;;;;;;;8.80;1.63;;;5.20;99.90;;;;;;4999660;28;20426;-65
2022/09/23 01:29:44;;;;;;;2.83;1.43;;;5.20;99.90;;;;;;5006396;28;20861;-66
2022/09/23 01:32:31;;;;;;;3.27;1.33;;;5.30;99.90;;;;;;4988735;28;20458;-66
2022/09/23 01:35:16;;;;;;;3.77;1.13;;;5.20;99.90;;;;;;4996812;28;20944;-66
2022/09/23 01:37:56;;;;;;;3.07;1.60;;;5.20;99.90;;;;;;5006573;28;20504;-66
2022/09/23 01:40:28;;;;;;;2.53;1.43;;;5.10;99.90;;;;;;5008599;28;20449;-66
2022/09/23 01:43:02;;;;;;;2.83;1.17;;;5.00;99.90;;;;;;5004910;28;20417;-65
2022/09/23 01:45:34;;;;;;;2.47;1.20;;;5.00;99.90;;;;;;5003621;28;20548;-66
2022/09/23 01:48:12;;;;;;;3.57;1.47;;;5.00;99.90;;;;;;4989640;28;20465;-66
2022/09/23 01:50:57;;;;;;;1.93;1.37;;;5.00;99.90;;;;;;5002092;28;20402;-66
2022/09/23 01:54:02;;;;;;;3.10;1.33;;;5.00;99.90;;;;;;5004538;28;20406;-65
2022/09/23 01:56:55;;;;;;;3.23;1.80;;;5.00;99.90;;;;;;4985595;28;20415;-66
2022/09/23 01:59:46;;;;;;;2.33;1.00;;;5.00;99.90;;;;;;4999738;28;20536;-66
2022/09/23 02:02:40;;;;;;;2.03;1.20;;;5.10;99.90;;;;;;5001341;28;20522;-66
2022/09/23 02:05:42;;;;;;;5.70;1.57;;;5.00;99.90;;;;;;4993987;28;20779;-65
2022/09/23 02:08:12;;;;;;;2.23;1.27;;;5.10;99.90;;;;;;4993601;28;20464;-66
2022/09/23 02:10:48;;;;;;;2.00;1.43;;;5.10;99.90;;;;;;5011241;28;20418;-65
2022/09/23 02:13:35;;;;;;;2.70;1.77;;;5.10;99.90;;;;;;5010214;28;20418;-66
2022/09/23 02:16:07;;;;;;;2.47;1.23;;;5.00;99.90;;;;;;5006954;28;20430;-65
2022/09/23 02:18:46;;;;;;;2.37;1.10;;;4.90;99.90;;;;;;5010776;28;20441;-66
2022/09/23 02:21:14;;;;;;;2.33;1.20;;;4.90;99.90;;;;;;5008968;28;20429;-66
2022/09/23 02:23:51;;;;;;;2.10;1.30;;;4.90;99.90;;;;;;5010367;28;20482;-65
2022/09/23 02:26:25;;;;;;;1.83;1.10;;;4.90;99.90;;;;;;5006666;28;20433;-66
2022/09/23 02:29:00;;;;;;;1.80;0.80;;;4.90;99.90;;;;;;5002521;28;20458;-65
2022/09/23 02:31:56;;;;;;;2.17;1.10;;;4.90;99.90;;;;;;4996884;28;20425;-66
2022/09/23 02:34:38;;;;;;;5.00;1.87;;;4.80;99.90;;;;;;5007120;28;20497;-65
2022/09/23 02:37:10;;;;;;;2.33;1.43;;;4.70;99.90;;;;;;5007467;28;20500;-66
2022/09/23 02:39:59;;;;;;;2.07;1.00;;;4.70;99.90;;;;;;4996371;28;20484;-65
2022/09/23 02:42:56;;;;;;;2.70;1.33;;;4.70;99.90;;;;;;5005832;28;20899;-65
2022/09/23 02:45:21;;;;;;;2.30;1.33;;;4.60;99.90;;;;;;4996727;28;20438;-65
2022/09/23 02:47:52;;;;;;;2.83;1.20;;;4.70;99.90;;;;;;5002889;28;20422;-66
2022/09/23 02:50:18;;;;;;;2.00;1.20;;;4.70;99.90;;;;;;4999764;28;20203;-65
2022/09/23 02:52:45;;;;;;;3.43;1.43;;;4.60;99.90;;;;;;5008688;28;20436;-65
2022/09/23 02:55:16;;;;;;;1.90;1.37;;;4.60;99.90;;;;;;5004667;28;20982;-65
2022/09/23 02:57:42;;;;;;;3.63;1.27;;;4.60;99.90;;;;;;4993854;28;20446;-66
2022/09/23 03:00:08;;;;;;;2.70;1.33;;;4.60;99.90;;;;;;5001700;28;20423;-66
2022/09/23 03:02:58;;;;;;;3.37;1.40;;;4.60;99.90;;;;;;5003054;28;20183;-65
2022/09/23 03:05:35;;;;;;;3.00;1.77;;;4.50;99.90;;;;;;4979305;28;20926;-66
2022/09/23 03:08:28;;;;;;;3.03;1.23;;;4.50;99.90;;;;;;4995687;28;20458;-65
2022/09/23 03:11:12;;;;;;;4.00;1.07;;;4.50;99.90;;;;;;4991394;28;20776;-65
2022/09/23 03:14:16;;;;;;;2.87;1.17;;;4.60;99.90;;;;;;4995461;28;20534;-66
2022/09/23 03:16:58;;;;;;;1.80;1.00;;;4.50;99.90;;;;;;5007359;28;20436;-65
2022/09/23 03:19:41;;;;;;;2.60;1.17;;;4.60;99.90;;;;;;5006936;28;20429;-66
2022/09/23 03:22:24;;;;;;;2.90;1.50;;;4.50;99.90;;;;;;5003052;28;20496;-65
2022/09/23 03:24:50;;;;;;;3.57;1.60;;;4.60;99.90;;;;;;4992484;28;20410;-65
2022/09/23 03:27:22;;;;;;;2.60;1.40;;;4.50;99.90;;;;;;5014751;28;20410;-66
2022/09/23 03:29:52;;;;;;;2.43;1.20;;;4.50;99.90;;;;;;5010115;28;21645;-65
2022/09/23 03:32:21;;;;;;;3.67;1.50;;;4.40;99.90;;;;;;5014321;28;20479;-66
2022/09/23 03:34:50;;;;;;;3.43;1.60;;;4.40;99.90;;;;;;5013009;28;20418;-66
2022/09/23 03:37:46;;;;;;;2.30;1.50;;;4.40;99.90;;;;;;5013803;28;20460;-65
2022/09/23 03:40:28;;;;;;;2.80;1.90;;;4.40;99.90;;;;;;4983887;28;20433;-65
2022/09/23 03:42:59;;;;;;;3.10;1.30;;;4.40;99.90;;;;;;5010740;28;20465;-66
2022/09/23 03:45:32;;;;;;;5.47;1.60;;;4.30;99.90;;;;;;5007903;28;20463;-66
2022/09/23 03:47:59;;;;;;;3.73;1.70;;;4.30;99.90;;;;;;5010868;28;20504;-66
2022/09/23 03:50:24;;;;;;;3.40;1.83;;;4.30;99.90;;;;;;5010591;28;20961;-65
2022/09/23 03:52:50;;;;;;;3.40;1.73;;;4.20;99.90;;;;;;4992808;28;20437;-66
2022/09/23 03:55:17;;;;;;;3.47;2.10;;;4.20;99.90;;;;;;5011687;28;20183;-66
2022/09/23 03:57:43;;;;;;;3.73;1.90;;;4.20;99.90;;;;;;5002481;28;20221;-66
2022/09/23 04:00:10;;;;;;;4.67;2.53;;;4.20;99.90;;;;;;5006608;28;21474;-65
2022/09/23 04:02:36;;;;;;;2.20;1.37;;;4.20;99.90;;;;;;5007983;28;20437;-66
2022/09/23 04:05:02;;;;;;;2.20;1.70;;;4.20;99.90;;;;;;5010716;28;20426;-66
2022/09/23 04:07:28;;;;;;;4.27;1.40;;;4.20;99.90;;;;;;5007499;28;20187;-65
2022/09/23 04:09:54;;;;;;;11.90;1.80;;;4.20;99.90;;;;;;5010319;28;20841;-65
2022/09/23 04:12:20;;;;;;;3.93;1.63;;;4.20;99.90;;;;;;5001231;28;20200;-66
2022/09/23 04:14:46;;;;;;;2.60;1.50;;;4.20;99.90;;;;;;5000023;28;20451;-65
2022/09/23 04:17:12;;;;;;;4.60;1.87;;;4.20;99.90;;;;;;5004877;28;20186;-66
2022/09/23 04:19:37;;;;;;;2.43;1.50;;;4.20;99.90;;;;;;5005045;28;20577;-66
2022/09/23 04:22:03;;;;;;;3.50;1.60;;;4.20;99.90;;;;;;5009404;28;20533;-65
2022/09/23 04:24:29;;;;;;;4.43;2.23;;;4.20;99.90;;;;;;4986391;28;20302;-65
2022/09/23 04:26:56;;;;;;;4.73;2.17;;;4.20;99.90;;;;;;4990552;28;20516;-65
2022/09/23 04:29:23;;;;;;;6.23;3.40;;;4.20;99.90;;;;;;5002735;28;20664;-65
2022/09/23 04:31:49;;;;;;;6.83;3.37;;;4.20;99.90;;;;;;5008356;28;20489;-65
2022/09/23 04:34:16;;;;;;;6.03;2.87;;;4.20;99.90;;;;;;5003057;28;20450;-65
2022/09/23 04:36:43;;;;;;;4.80;2.63;;;4.20;99.90;;;;;;5007781;28;20425;-65
2022/09/23 04:39:09;;;;;;;2.77;2.10;;;4.20;99.90;;;;;;4996773;28;20439;-66
2022/09/23 04:41:35;;;;;;;4.67;2.40;;;4.20;99.90;;;;;;4987645;28;20482;-65
2022/09/23 04:44:01;;;;;;;4.33;1.87;;;4.20;99.90;;;;;;5001511;28;20430;-66
2022/09/23 04:46:27;;;;;;;3.47;2.00;;;4.20;99.90;;;;;;5006746;28;20258;-65
2022/09/23 04:48:52;;;;;;;4.73;2.00;;;4.20;99.90;;;;;;5001509;28;20303;-66
2022/09/23 04:51:20;;;;;;;12.93;3.70;;;4.20;99.90;;;;;;5007256;28;20179;-66
2022/09/23 04:53:47;;;;;;;9.03;4.20;;;4.20;99.90;;;;;;5013065;28;20183;-65
2022/09/23 04:56:19;;;;;;;6.80;3.57;;;4.20;99.90;;;;;;5011224;28;20501;-65
2022/09/23 04:58:45;;;;;;;6.33;3.80;;;4.20;99.90;;;;;;4996064;28;20418;-65
2022/09/23 05:01:16;;;;;;;5.83;3.30;;;4.20;99.90;;;;;;5011918;28;20462;-65
2022/09/23 05:03:43;;;;;;;8.87;3.30;;;4.20;99.90;;;;;;5006668;28;20442;-65
2022/09/23 05:06:12;;;;;;;6.00;2.70;;;4.20;99.90;;;;;;5011602;28;20772;-65
2022/09/23 05:08:38;;;;;;;5.93;3.03;;;4.10;99.90;;;;;;5012123;28;20806;-65
2022/09/23 05:11:05;;;;;;;6.00;2.87;;;4.20;99.90;;;;;;5008835;28;20494;-65
2022/09/23 05:13:31;;;;;;;4.27;2.50;;;4.10;99.90;;;;;;5010025;28;20970;-65
2022/09/23 05:16:03;;;;;;;4.40;2.50;;;4.10;99.90;;;;;;5005222;28;20460;-65
2022/09/23 05:18:33;;;;;;;2.90;2.10;;;4.10;99.90;;;;;;5010797;28;20934;-65
2022/09/23 05:20:59;;;;;;;4.20;2.37;;;4.10;99.90;;;;;;5007930;28;20435;-65
2022/09/23 05:23:27;;;;;;;4.33;2.47;;;4.10;99.90;;;;;;4989658;28;20970;-65
2022/09/23 05:26:02;;;;;;;7.30;2.57;;;4.10;99.90;;;;;;5004780;28;20506;-65
2022/09/23 05:28:31;;;;;;;6.37;2.80;;;4.20;99.90;;;;;;5003448;28;20616;-65
2022/09/23 05:31:30;;;;;;;5.73;3.07;;;4.20;99.90;;;;;;4988224;28;20435;-65
2022/09/23 05:33:59;;;;;;;6.20;2.90;;;4.20;99.90;;;;;;4962990;28;20784;-65
2022/09/23 05:36:26;;;;;;;5.23;2.53;;;4.20;99.90;;;;;;5008904;28;20882;-65
2022/09/23 05:38:52;;;;;;;3.40;2.70;;;4.30;99.90;;;;;;5004398;28;20443;-65
2022/09/23 05:41:21;;;;;;;15.40;3.60;;;4.40;99.90;;;;;;5009110;28;20425;-65
2022/09/23 05:43:49;;;;;;;10.07;5.30;;;4.50;99.90;;;;;;5004305;28;20427;-65
2022/09/23 05:46:18;;;;;;;13.83;3.50;;;4.60;99.90;;;;;;5006970;28;20433;-65
2022/09/23 05:48:44;;;;;;;7.40;4.93;;;4.70;99.90;;;;;;4986262;28;20475;-65
2022/09/23 05:51:15;;;;;;;6.27;3.97;;;4.80;99.90;;;;;;5007138;28;20477;-66
2022/09/23 05:53:44;;;;;;;7.83;2.90;;;4.80;99.90;;;;;;4998544;28;20505;-65
2022/09/23 05:56:15;;;;;;;5.20;2.83;;;4.90;99.90;;;;;;4998066;28;20422;-65
2022/09/23 05:58:40;;;;;;;8.83;2.87;;;5.00;99.90;;;;;;4994867;28;20431;-65
2022/09/23 06:01:16;;;;;;;6.83;4.10;;;5.20;99.90;;;;;;5004046;28;20913;-65
2022/09/23 06:03:45;;;;;;;3.50;2.67;;;5.20;99.90;;;;;;5004045;28;20988;-65
2022/09/23 06:06:13;;;;;;;5.53;3.33;;;5.30;99.90;;;;;;5005530;28;20942;-65
2022/09/23 06:08:39;;;;;;;4.17;2.70;;;5.40;99.90;;;;;;5003565;28;20474;-65
2022/09/23 06:11:06;;;;;;;4.03;2.67;;;5.50;99.90;;;;;;4987486;28;20446;-65
2022/09/23 06:13:38;;;;;;;5.23;2.67;;;5.50;99.90;;;;;;4998328;28;20765;-65
2022/09/23 06:16:12;;;;;;;4.13;2.47;;;5.60;99.90;;;;;;4987482;28;21011;-65
2022/09/23 06:18:39;;;;;;;5.80;3.43;;;5.70;99.90;;;;;;5005224;28;20790;-65
2022/09/23 06:21:05;;;;;;;5.17;2.97;;;5.70;99.90;;;;;;5010195;28;20512;-65
2022/09/23 06:23:31;;;;;;;6.00;3.27;;;5.90;99.90;;;;;;4993590;28;20440;-65
2022/09/23 06:26:02;;;;;;;11.13;3.57;;;5.90;99.90;;;;;;5009335;28;20436;-65
2022/09/23 06:28:33;;;;;;;7.50;3.30;;;6.00;99.90;;;;;;5005894;28;20544;-65
2022/09/23 06:31:00;;;;;;;5.13;2.23;;;6.10;99.90;;;;;;5009288;28;20430;-65
2022/09/23 06:33:26;;;;;;;5.47;3.03;;;6.30;99.90;;;;;;5004314;28;20483;-65
2022/09/23 06:36:00;;;;;;;5.77;2.70;;;6.40;99.90;;;;;;5008099;28;20426;-65
2022/09/23 06:38:26;;;;;;;9.10;3.47;;;6.60;99.90;;;;;;5009189;28;20475;-65
2022/09/23 06:40:54;;;;;;;9.10;4.40;;;6.70;99.90;;;;;;4984631;28;20423;-65
2022/09/23 06:43:21;;;;;;;45.67;17.20;;;6.80;99.90;;;;;;5005366;28;20816;-65
2022/09/23 06:45:55;;;;;;;80.30;26.90;;;7.00;99.90;;;;;;4994691;28;20918;-65
2022/09/23 06:48:21;;;;;;;100.80;34.53;;;7.10;99.90;;;;;;4999385;28;20528;-65
2022/09/23 06:50:50;;;;;;;71.80;21.30;;;7.30;99.90;;;;;;4986189;28;20417;-65
2022/09/23 06:53:16;;;;;;;37.00;10.37;;;7.40;99.90;;;;;;5006136;28;20500;-65
2022/09/23 06:55:43;;;;;;;43.00;13.70;;;7.60;99.90;;;;;;5002403;28;20513;-65
2022/09/23 06:58:08;;;;;;;35.43;9.10;;;7.70;99.90;;;;;;4997768;28;20475;-65
2022/09/23 07:00:35;;;;;;;20.73;6.93;;;7.90;99.90;;;;;;4981620;28;20457;-65
2022/09/23 07:03:04;;;;;;;8.37;3.70;;;8.10;99.90;;;;;;5006007;28;20253;-65
2022/09/23 07:05:30;;;;;;;4.93;2.23;;;8.20;99.90;;;;;;5002830;28;20472;-65
2022/09/23 07:07:55;;;;;;;5.23;2.00;;;8.40;99.90;;;;;;5005483;28;20978;-65
2022/09/23 07:10:21;;;;;;;3.87;1.90;;;8.70;99.90;;;;;;5008974;28;20186;-65
2022/09/23 07:12:46;;;;;;;5.90;1.70;;;8.90;99.90;;;;;;5004404;28;20572;-65
2022/09/23 07:15:14;;;;;;;4.57;2.17;;;9.20;99.90;;;;;;4995328;28;20226;-65
2022/09/23 07:17:41;;;;;;;2.97;1.60;;;9.60;99.90;;;;;;4985168;28;20176;-65
2022/09/23 07:20:07;;;;;;;6.20;1.37;;;10.00;99.90;;;;;;5007354;28;20812;-66
2022/09/23 07:22:33;;;;;;;2.80;1.10;;;10.40;99.90;;;;;;5004601;28;20427;-66
2022/09/23 07:24:58;;;;;;;3.43;1.63;;;10.80;99.90;;;;;;5005854;28;21008;-66
2022/09/23 07:27:25;;;;;;;2.80;1.37;;;11.30;99.90;;;;;;5003464;28;20184;-65
2022/09/23 07:29:52;;;;;;;5.87;1.73;;;11.80;99.90;;;;;;5001122;28;20207;-66
2022/09/23 07:32:19;;;;;;;3.70;1.87;;;12.40;99.30;;;;;;4995010;28;20419;-66
2022/09/23 07:34:45;;;;;;;2.87;1.47;;;12.30;99.10;;;;;;5004559;28;20421;-66
2022/09/23 07:37:12;;;;;;;3.63;1.60;;;12.70;98.00;;;;;;5006297;28;20937;-64
2022/09/23 07:39:38;;;;;;;1.80;1.00;;;13.20;96.90;;;;;;5012547;28;20500;-64
2022/09/23 07:42:04;;;;;;;2.43;1.10;;;13.60;95.20;;;;;;4994263;28;20434;-64
2022/09/23 07:44:31;;;;;;;4.90;1.50;;;13.50;95.60;;;;;;5011880;28;20430;-64
2022/09/23 07:46:58;;;;;;;2.77;1.67;;;13.50;95.80;;;;;;5009606;28;20421;-64
2022/09/23 07:49:24;;;;;;;2.43;1.10;;;13.70;95.40;;;;;;5010982;28;20475;-64
2022/09/23 07:51:51;;;;;;;2.07;1.00;;;14.00;94.10;;;;;;5009793;28;20790;-64
2022/09/23 07:54:17;;;;;;;7.43;1.80;;;13.80;94.40;;;;;;4987724;28;20422;-66
2022/09/23 07:56:44;;;;;;;4.63;1.27;;;14.00;94.30;;;;;;5007842;28;20421;-66
2022/09/23 07:59:18;;;;;;;2.13;1.37;;;14.00;94.20;;;;;;5007181;28;20242;-66
2022/09/23 08:01:47;;;;;;;2.30;1.23;;;14.00;94.60;;;;;;5001459;28;20950;-65
2022/09/23 08:04:18;;;;;;;2.80;1.53;;;14.00;95.00;;;;;;5010131;28;20430;-66
2022/09/23 08:06:47;;;;;;;2.23;0.93;;;13.80;94.80;;;;;;5008322;28;20438;-65
2022/09/23 08:09:15;;;;;;;8.63;1.80;;;13.90;94.90;;;;;;5007848;28;20472;-65
2022/09/23 08:11:41;;;;;;;2.33;0.93;;;14.00;94.70;;;;;;5009553;28;20414;-69
2022/09/23 08:14:12;;;;;;;2.10;1.10;;;13.80;94.40;;;;;;5010320;28;20429;-67
2022/09/23 08:16:41;;;;;;;2.33;1.20;;;13.70;94.70;;;;;;5006469;28;20182;-69
2022/09/23 08:19:07;;;;;;;2.63;1.10;;;13.40;94.80;;;;;;5007616;28;20464;-65
2022/09/23 08:21:33;;;;;;;2.77;1.30;;;13.40;96.10;;;;;;5004635;28;20514;-66
2022/09/23 08:23:59;;;;;;;2.13;0.90;;;13.40;95.80;;;;;;5005228;28;20423;-66
2022/09/23 08:26:25;;;;;;;4.17;1.60;;;13.50;96.30;;;;;;5007465;28;20418;-65
2022/09/23 08:28:55;;;;;;;2.43;0.80;;;13.70;95.70;;;;;;4984082;28;20297;-66
2022/09/23 08:31:22;;;;;;;2.43;1.43;;;13.90;95.20;;;;;;5008694;28;20467;-65
2022/09/23 08:33:52;;;;;;;1.87;0.97;;;14.00;94.30;;;;;;5007536;28;20422;-66
2022/09/23 08:36:18;;;;;;;3.33;1.40;;;14.00;93.10;;;;;;5008976;28;20457;-66
2022/09/23 08:38:43;;;;;;;2.50;1.20;;;13.90;94.50;;;;;;5007002;28;20844;-65
2022/09/23 08:41:26;;;;;;;3.83;1.43;;;13.90;95.20;;;;;;5002156;28;20195;-66
2022/09/23 08:43:56;;;;;;;1.70;0.83;;;13.90;95.20;;;;;;5004526;28;20196;-66
2022/09/23 08:46:30;;;;;;;2.17;1.20;;;13.80;94.70;;;;;;5007570;28;20426;-66
2022/09/23 08:48:58;;;;;;;1.70;0.90;;;14.00;93.60;;;;;;5000336;28;20477;-66
2022/09/23 08:51:53;;;;;;;1.97;1.10;;;13.80;94.30;;;;;;5008279;28;20418;-65
2022/09/23 08:54:19;;;;;;;2.60;1.27;;;14.00;93.30;;;;;;5005173;28;20426;-65
2022/09/23 08:56:50;;;;;;;5.93;1.73;;;13.90;93.50;;;;;;4979635;28;20441;-65
2022/09/23 08:59:41;;;;;;;3.03;0.90;;;13.80;94.10;;;;;;5004926;28;20544;-65
2022/09/23 09:02:18;;;;;;;1.50;0.90;;;13.80;93.40;;;;;;5000054;28;20426;-66
2022/09/23 09:04:48;;;;;;;2.30;1.17;;;13.80;93.70;;;;;;5003961;28;20470;-65
2022/09/23 09:07:32;;;;;;;2.03;0.93;;;13.90;93.60;;;;;;5004697;28;20878;-65
2022/09/23 09:10:18;;;;;;;2.10;1.00;;;14.00;93.60;;;;;;5000472;28;20892;-65
2022/09/23 09:12:55;;;;;;;2.60;1.20;;;14.00;93.90;;;;;;5008226;28;20418;-66
2022/09/23 09:15:27;;;;;;;2.60;1.20;;;14.10;94.20;;;;;;5010761;28;20501;-66
2022/09/23 09:18:02;;;;;;;2.73;1.33;;;14.20;93.90;;;;;;5010379;28;20752;-66
2022/09/23 09:20:58;;;;;;;2.93;1.10;;;14.30;94.10;;;;;;5011835;28;20505;-66
2022/09/23 09:23:42;;;;;;;3.20;1.30;;;14.80;93.20;;;;;;5004606;28;20410;-66
2022/09/23 09:26:38;;;;;;;3.23;1.83;;;15.00;94.20;;;;;;5007968;28;21134;-66
2022/09/23 09:29:07;;;;;;;2.23;1.17;;;15.40;93.30;;;;;;4996324;28;20910;-66
2022/09/23 09:31:46;;;;;;;2.00;1.00;;;15.60;92.70;;;;;;5009766;28;20422;-66
2022/09/23 09:34:40;;;;;;;2.50;1.20;;;15.70;92.50;;;;;;5008370;28;20421;-66
2022/09/23 09:37:17;;;;;;;2.43;0.97;;;15.70;93.10;;;;;;5007219;28;20878;-66
2022/09/23 09:39:42;;;;;;;2.30;1.10;;;15.90;92.20;;;;;;4991735;28;20481;-66
2022/09/23 09:42:17;;;;;;;3.03;1.13;;;16.00;92.30;;;;;;5007103;28;20431;-65
2022/09/23 09:44:51;;;;;;;2.47;1.23;;;15.90;92.00;;;;;;5009409;28;20221;-66
2022/09/23 09:47:37;;;;;;;2.87;1.20;;;15.80;93.30;;;;;;5004497;28;20445;-65
2022/09/23 09:50:09;;;;;;;2.33;1.20;;;15.70;93.20;;;;;;5006425;28;20911;-66
2022/09/23 09:52:35;;;;;;;2.80;1.30;;;15.70;92.80;;;;;;4997818;28;20437;-66
2022/09/23 09:55:26;;;;;;;2.67;1.30;;;15.80;92.80;;;;;;5005524;28;20803;-66
2022/09/23 09:57:54;;;;;;;3.30;1.57;;;15.80;93.40;;;;;;5003222;28;20414;-66
2022/09/23 10:00:26;;;;;;;4.63;1.67;;;15.80;92.90;;;;;;5004993;28;20917;-65
2022/09/23 10:03:12;;;;;;;2.23;1.20;;;15.90;92.70;;;;;;5000696;28;20792;-66
2022/09/23 10:05:46;;;;;;;5.27;1.50;;;16.10;93.60;;;;;;4995470;28;20421;-66
2022/09/23 10:08:23;;;;;;;2.20;1.00;;;16.30;92.20;;;;;;5003445;28;20474;-66
2022/09/23 10:11:10;;;;;;;2.77;1.20;;;16.40;92.10;;;;;;5004719;28;20421;-66
2022/09/23 10:13:36;;;;;;;3.90;1.50;;;16.60;92.50;;;;;;5003520;28;20434;-65
2022/09/23 10:16:03;;;;;;;1.70;1.00;;;16.70;92.80;;;;;;4997697;28;20421;-67
2022/09/23 10:18:30;;;;;;;2.23;1.23;;;16.90;92.90;;;;;;5005320;28;20473;-66
2022/09/23 10:21:14;;;;;;;4.47;1.67;;;17.10;93.00;;;;;;5001385;28;20989;-65
2022/09/23 10:23:45;;;;;;;2.53;1.47;;;17.20;92.20;;;;;;4988213;28;20781;-65
2022/09/23 10:26:12;;;;;;;3.40;1.37;;;17.20;92.20;;;;;;4998059;28;20419;-65
2022/09/23 10:28:52;;;;;;;3.30;1.53;;;17.30;91.90;;;;;;5000326;28;20488;-66
2022/09/23 10:31:30;;;;;;;2.10;0.90;;;17.30;91.50;;;;;;5000133;28;20419;-66
2022/09/23 10:34:25;;;;;;;1.80;0.90;;;17.50;91.90;;;;;;4995185;28;20418;-65
2022/09/23 10:37:02;;;;;;;2.20;1.30;;;17.50;91.20;;;;;;4995103;28;20415;-66
2022/09/23 10:48:21;;;;;;;2.80;1.40;;;17.90;91.20;;;;;;4989491;28;21301;-66
2022/09/23 10:50:50;;;;;;;4.60;1.67;;;18.00;91.50;;;;;;4992299;28;20415;-66
2022/09/23 10:53:33;;;;;;;1.77;0.83;;;18.20;91.30;;;;;;5007535;28;20421;-66
2022/09/23 10:56:35;;;;;;;3.60;1.30;;;18.30;89.70;;;;;;5005209;28;20753;-66
2022/09/23 10:59:13;;;;;;;4.73;1.93;;;18.10;89.70;;;;;;4998688;28;20433;-65
2022/09/23 11:02:01;;;;;;;3.40;1.37;;;18.20;89.20;;;;;;5007112;28;20428;-66
2022/09/23 11:04:35;;;;;;;3.87;1.77;;;18.40;90.00;;;;;;5004648;28;20496;-65
2022/09/23 11:07:19;;;;;;;9.23;1.53;;;18.50;90.00;;;;;;4995985;28;20426;-66
2022/09/23 11:10:16;;;;;;;3.53;1.87;;;18.70;88.60;;;;;;4998487;28;21000;-66
2022/09/23 11:13:01;;;;;;;2.70;1.43;;;18.60;90.30;;;;;;5003065;28;21141;-66
2022/09/23 11:15:27;;;;;;;5.40;1.40;;;18.60;87.20;;;;;;4995242;28;20426;-66
2022/09/23 11:18:18;;;;;;;6.20;1.53;;;18.50;90.50;;;;;;5001632;28;20428;-66
2022/09/23 11:21:01;;;;;;;3.87;1.73;;;18.60;89.50;;;;;;4996919;28;20233;-66
2022/09/23 11:23:42;;;;;;;2.33;1.27;;;18.60;88.40;;;;;;4995433;28;20418;-66
2022/09/23 11:26:30;;;;;;;2.50;1.77;;;18.70;87.60;;;;;;5001416;28;20533;-66
2022/09/23 11:29:10;;;;;;;2.53;1.53;;;18.90;87.00;;;;;;5004818;28;20631;-66
2022/09/23 11:32:06;;;;;;;2.30;1.53;;;19.00;88.30;;;;;;4985835;28;20556;-66
2022/09/23 11:34:44;;;;;;;2.47;1.30;;;19.10;87.00;;;;;;5000469;28;20414;-66
2022/09/23 11:37:13;;;;;;;3.10;1.53;;;19.10;86.90;;;;;;4978350;28;20442;-66
2022/09/23 11:39:48;;;;;;;2.97;1.67;;;18.90;87.00;;;;;;4998304;28;20504;-66
2022/09/23 11:42:24;;;;;;;6.20;2.17;;;19.20;86.40;;;;;;4995178;28;20442;-66
2022/09/23 11:44:56;;;;;;;11.03;1.20;;;19.20;87.30;;;;;;4998502;28;20431;-66
2022/09/23 11:47:33;;;;;;;2.60;1.33;;;19.40;87.70;;;;;;5000565;28;20450;-66
2022/09/23 11:50:05;;;;;;;3.70;1.73;;;19.50;85.80;;;;;;4992607;28;20465;-66
2022/09/23 11:52:43;;;;;;;3.10;1.57;;;19.40;84.10;;;;;;4985004;28;20455;-66
2022/09/23 11:55:19;;;;;;;3.10;1.80;;;19.30;85.60;;;;;;4999174;28;20493;-66
2022/09/23 11:58:04;;;;;;;3.87;1.90;;;19.30;86.30;;;;;;4991439;28;20505;-66
2022/09/23 12:00:37;;;;;;;4.93;1.27;;;19.10;84.80;;;;;;4998234;28;20468;-66
2022/09/23 12:03:22;;;;;;;8.83;1.60;;;19.10;85.70;;;;;;4997985;28;20415;-66
2022/09/23 12:05:52;;;;;;;7.30;1.57;;;19.30;86.30;;;;;;5004241;28;20417;-66
2022/09/23 12:08:31;;;;;;;3.30;1.30;;;19.40;85.90;;;;;;5003332;28;20473;-66
2022/09/23 12:11:04;;;;;;;2.30;1.17;;;20.10;86.10;;;;;;5008567;28;20848;-66
2022/09/23 12:13:41;;;;;;;3.63;1.60;;;20.60;84.80;;;;;;5003789;28;20914;-66
2022/09/23 12:16:37;;;;;;;3.90;2.20;;;20.70;84.10;;;;;;4994711;28;20529;-66
2022/09/23 12:19:27;;;;;;;2.83;1.70;;;20.60;82.70;;;;;;4993803;28;20424;-66
2022/09/23 12:22:04;;;;;;;1.93;1.13;;;20.90;83.10;;;;;;5011522;28;20418;-66
2022/09/23 12:24:40;;;;;;;4.23;1.70;;;20.90;81.60;;;;;;5010039;28;20448;-66
2022/09/23 12:27:10;;;;;;;5.63;1.90;;;20.80;84.80;;;;;;5000755;28;20458;-68
2022/09/23 12:29:37;;;;;;;4.80;1.83;;;20.80;83.40;;;;;;4996962;28;20465;-66
2022/09/23 12:32:08;;;;;;;3.30;1.80;;;20.50;83.80;;;;;;4995825;28;20844;-66
2022/09/23 12:34:47;;;;;;;2.90;1.63;;;20.50;83.30;;;;;;4998075;28;20500;-66
2022/09/23 12:37:24;;;;;;;3.03;1.93;;;20.60;81.70;;;;;;4996125;28;20421;-66
2022/09/23 12:39:50;;;;;;;3.10;1.60;;;20.80;81.90;;;;;;4999698;28;20446;-66
2022/09/23 12:42:21;;;;;;;5.60;2.10;;;21.10;81.80;;;;;;5002203;28;20418;-66
2022/09/23 12:44:48;;;;;;;3.93;1.90;;;21.10;82.40;;;;;;5002467;28;20187;-67
2022/09/23 12:47:13;;;;;;;2.43;1.60;;;20.90;83.40;;;;;;5003068;28;20929;-67
2022/09/23 12:49:40;;;;;;;7.00;1.70;;;20.80;84.10;;;;;;5004801;28;20471;-66
2022/09/23 12:52:15;;;;;;;3.90;1.70;;;20.80;81.80;;;;;;5002614;28;20653;-67
2022/09/23 12:54:45;;;;;;;2.40;1.40;;;21.00;83.90;;;;;;5009779;28;20901;-67
2022/09/23 12:57:33;;;;;;;4.97;2.03;;;21.20;83.40;;;;;;5004861;28;20418;-66
2022/09/23 13:00:10;;;;;;;3.40;1.60;;;21.30;81.50;;;;;;4988608;28;20435;-66
2022/09/23 13:02:42;;;;;;;3.60;1.43;;;21.50;82.70;;;;;;5008279;28;20418;-66
2022/09/23 13:07:58;;;;;;;4.13;1.87;;;21.60;79.70;;;;;;5006037;28;20761;-66
2022/09/23 13:10:28;;;;;;;2.00;1.20;;;21.60;81.70;;;;;;5001917;28;20459;-67
2022/09/23 13:12:56;;;;;;;2.40;1.40;;;21.60;79.90;;;;;;5000136;28;20504;-67
2022/09/23 13:15:35;;;;;;;3.50;1.37;;;21.50;81.10;;;;;;5000309;28;20430;-66
2022/09/23 13:18:19;;;;;;;3.83;1.40;;;21.30;82.30;;;;;;4999234;28;20426;-66
2022/09/23 13:20:51;;;;;;;2.83;1.10;;;21.30;81.10;;;;;;4995485;28;20421;-66
2022/09/23 13:23:29;;;;;;;3.10;1.50;;;21.20;81.80;;;;;;4999953;28;20784;-66
2022/09/23 13:26:08;;;;;;;4.27;1.63;;;21.00;81.90;;;;;;4996187;28;20426;-66
2022/09/23 13:28:54;;;;;;;6.20;2.10;;;21.00;81.00;;;;;;4992259;28;20472;-66
2022/09/23 13:31:20;;;;;;;4.17;1.67;;;20.70;81.00;;;;;;4997390;28;21293;-66
2022/09/23 13:33:50;;;;;;;3.20;1.60;;;20.50;82.00;;;;;;4999879;28;20410;-66
2022/09/23 13:36:18;;;;;;;5.60;1.63;;;20.30;82.50;;;;;;5002234;28;20422;-66